Aviation Digital Data Service (ADDS)

Output produced by METARs form (2017 UTC 01 October 2014)
found at http://aviationweather.gov/adds/metars/
 
KCDW 011953Z VRB05KT 10SM FEW017 SCT022 OVC028 17/13 A3004 RMK AO2 SLP179 T01720133
KMMU 011945Z 05004KT 07SM BKN020 OVC035 19/15 A3004
KFWN 012013Z AUTO 07007KT 10SM SCT016 BKN024 OVC046 19/14 A3005 RMK AO2 T01940144
KTEB 011951Z 03006KT 4SM -RA HZ BKN013 OVC021 18/14 A3002 RMK AO2 SLP167 P0000 T01780144
KTEB 011931Z 0120/0218 02010KT P6SM BKN015 OVC030 
     FM020200 35008KT P6SM OVC015 
     FM021500 36010KT P6SM OVC020
       
KEWR 011951Z 02011KT 10SM FEW010 BKN016 OVC022 18/15 A3003 RMK AO2 SLP168 T01830150
KEWR 011931Z 0120/0224 01010KT P6SM BKN015 OVC020 
     FM020200 36008KT P6SM OVC015 
     FM021500 01010G18KT P6SM OVC020 
     FM022100 02012G18KT P6SM BKN020 OVC040
       
KABE 011951Z 07011G15KT 10SM FEW034 BKN095 22/13 A3002 RMK AO2 SLP164 T02170128
KABE 011720Z 0118/0218 05006KT P6SM BKN035 
     FM020100 02004KT P6SM BKN030 
     FM020900 36003KT 5SM BR BKN025 
     FM021400 02009KT P6SM BKN035
       
KAVP 011954Z 04010KT 10SM BKN055 22/11 A3002 RMK AO2 SLP160 T02220111
KAVP 011731Z 0118/0218 03005KT P6SM BKN045 
     FM020300 VRB03KT P6SM SCT035 
     TEMPO 0208/0212 3SM BR BKN015 
     FM021400 02005KT P6SM BKN040
       
KSWF 011945Z 05008G15KT 7SM BKN010 OVC020 17/15 A3006
KSWF 011931Z 0120/0224 07005KT 3SM BR BKN015 OVC020 
     FM020100 02007KT 6SM BR BKN015 
     FM021600 03005KT P6SM BKN025 
     FM022100 06006KT P6SM OVC040 AMD NOT SKED
       
KMSV 012015Z AUTO 10006KT 10SM SCT016 OVC048 17/13 A3008 RMK AO1
KPOU 011953Z 01005KT 10SM BKN010 18/16 A3004 RMK AO2 SLP170 T01830156
KPOU 011816Z 0118/0218 35006KT P6SM VCSH BKN010 OVC013 
     TEMPO 0118/0121 2SM -RA BR BKN009 
     FM012100 VRB03KT P6SM VCSH SCT009 OVC015 
     FM020000 VRB03KT P6SM VCSH OVC025 
     FM020600 VRB03KT 3SM BR OVC025 
     FM020900 VRB03KT 2SM BR OVC015 
     FM021500 36005KT P6SM OVC025